Time;durP1;ratioP1;P1;durP2;ratioP2;P2;SDS_P1;SDS_P2;PMS_P1;PMS_P2;Temp;Humidity;BMP_temperature;BMP_pressure;BME280_temperature;BME280_humidity;BME280_pressure;Samples;Min_cycle;Max_cycle;Signal;HPM_P1;HPM_P2
2022/03/28 00:00:11;;;;;;;36.45;31.98;;;9.50;99.90;;;;;;5050963;28;20486;-70
2022/03/28 00:02:40;;;;;;;33.78;29.23;;;9.50;99.90;;;;;;5049035;28;20025;-72
2022/03/28 00:05:10;;;;;;;32.20;26.52;;;9.50;99.90;;;;;;5050230;28;20021;-71
2022/03/28 00:07:36;;;;;;;32.25;26.38;;;9.60;99.90;;;;;;5049248;28;20108;-71
2022/03/28 00:10:02;;;;;;;37.40;25.55;;;9.70;99.90;;;;;;5050307;28;20120;-70
2022/03/28 00:12:28;;;;;;;34.13;27.23;;;9.80;99.90;;;;;;5049865;28;20025;-70
2022/03/28 00:14:54;;;;;;;31.38;27.10;;;9.80;99.90;;;;;;5048285;28;20075;-70
2022/03/28 00:17:19;;;;;;;33.45;26.02;;;9.80;99.90;;;;;;5048282;28;20032;-70
2022/03/28 00:19:45;;;;;;;29.75;26.55;;;9.80;99.90;;;;;;5044127;28;20444;-69
2022/03/28 00:22:11;;;;;;;34.17;26.73;;;9.70;99.90;;;;;;5047052;28;20039;-70
2022/03/28 00:24:36;;;;;;;38.78;30.25;;;9.60;99.90;;;;;;5046544;28;20494;-70
2022/03/28 00:27:02;;;;;;;37.35;28.02;;;9.50;99.90;;;;;;5043234;28;20021;-71
2022/03/28 00:29:28;;;;;;;32.70;25.77;;;9.40;99.90;;;;;;5048484;28;20041;-71
2022/03/28 00:31:54;;;;;;;30.25;26.95;;;9.50;99.90;;;;;;5050262;28;20033;-69
2022/03/28 00:34:21;;;;;;;29.08;25.90;;;9.50;99.90;;;;;;5050649;28;20029;-69
2022/03/28 00:36:50;;;;;;;32.20;26.95;;;9.60;99.90;;;;;;5052797;28;20024;-69
2022/03/28 00:39:16;;;;;;;31.55;27.52;;;9.50;99.90;;;;;;5049797;28;20465;-69
2022/03/28 00:41:43;;;;;;;32.80;26.55;;;9.50;99.90;;;;;;5050616;28;20025;-69
2022/03/28 00:44:08;;;;;;;42.97;29.83;;;9.50;99.90;;;;;;5047666;28;20031;-69
2022/03/28 00:46:35;;;;;;;32.72;28.23;;;9.50;99.90;;;;;;5043145;28;20284;-69
2022/03/28 00:49:01;;;;;;;29.92;26.13;;;9.50;99.90;;;;;;5046505;28;20044;-71
2022/03/28 00:51:26;;;;;;;35.15;28.70;;;9.50;99.90;;;;;;5049395;28;20024;-70
2022/03/28 00:53:53;;;;;;;31.45;26.98;;;9.40;99.90;;;;;;5047877;28;20041;-68
2022/03/28 00:56:20;;;;;;;30.70;25.67;;;9.30;99.90;;;;;;5046774;28;20037;-70
2022/03/28 00:58:47;;;;;;;29.83;26.60;;;9.40;99.90;;;;;;5047937;28;20017;-72
2022/03/28 01:01:12;;;;;;;36.58;29.85;;;9.40;99.90;;;;;;5050675;28;20017;-70
2022/03/28 01:03:39;;;;;;;31.40;26.63;;;9.40;99.90;;;;;;5035318;28;20099;-70
2022/03/28 01:06:06;;;;;;;39.03;25.75;;;9.40;99.90;;;;;;5050395;28;20043;-70
2022/03/28 01:08:33;;;;;;;36.25;27.63;;;9.30;99.90;;;;;;5048693;28;20025;-70
2022/03/28 01:11:04;;;;;;;28.73;25.77;;;9.30;99.90;;;;;;5045852;28;20021;-70
2022/03/28 01:13:35;;;;;;;29.37;26.07;;;9.30;99.90;;;;;;5047034;28;20544;-69
2022/03/28 01:16:01;;;;;;;35.47;27.75;;;9.20;99.90;;;;;;5047467;28;20021;-70
2022/03/28 01:18:28;;;;;;;38.28;29.63;;;9.20;99.90;;;;;;5047760;28;20094;-69
2022/03/28 01:20:58;;;;;;;37.95;28.23;;;9.10;99.90;;;;;;5047398;28;20035;-70
2022/03/28 01:23:24;;;;;;;30.38;25.98;;;9.20;99.90;;;;;;5048010;28;20096;-70
2022/03/28 01:25:51;;;;;;;38.75;28.33;;;9.20;99.90;;;;;;5048277;28;20254;-71
2022/03/28 01:28:21;;;;;;;36.55;28.58;;;9.10;99.90;;;;;;5048326;28;20025;-70
2022/03/28 01:30:47;;;;;;;33.20;28.73;;;9.10;99.90;;;;;;5044992;28;20029;-70
2022/03/28 01:33:13;;;;;;;29.48;26.38;;;9.00;99.90;;;;;;5049191;28;20021;-68
2022/03/28 01:35:41;;;;;;;36.35;29.10;;;9.10;99.90;;;;;;5046616;28;20108;-69
2022/03/28 01:38:15;;;;;;;33.88;28.42;;;9.20;99.90;;;;;;5050269;28;20016;-68
2022/03/28 01:40:43;;;;;;;40.25;30.52;;;9.20;99.90;;;;;;5050459;28;20071;-71
2022/03/28 01:43:10;;;;;;;37.80;30.40;;;9.20;99.90;;;;;;5048853;28;20066;-70
2022/03/28 01:45:35;;;;;;;36.13;28.48;;;9.10;99.90;;;;;;5047991;28;20041;-70
2022/03/28 01:48:01;;;;;;;31.08;27.67;;;9.00;99.90;;;;;;5048916;28;20432;-70
2022/03/28 01:50:27;;;;;;;35.33;29.08;;;9.00;99.90;;;;;;5048423;28;20028;-70
2022/03/28 01:52:53;;;;;;;32.90;28.30;;;8.90;99.90;;;;;;5050510;28;20394;-70
2022/03/28 01:55:19;;;;;;;36.58;28.70;;;8.80;99.90;;;;;;5041569;28;20063;-71
2022/03/28 01:57:45;;;;;;;38.83;30.77;;;8.80;99.90;;;;;;5050167;28;20025;-72
2022/03/28 02:00:14;;;;;;;35.15;29.35;;;8.80;99.90;;;;;;5046734;28;20021;-71
2022/03/28 02:02:41;;;;;;;36.20;31.92;;;8.80;99.90;;;;;;5050271;28;20021;-70
2022/03/28 02:05:11;;;;;;;64.07;48.35;;;8.80;99.90;;;;;;5047363;28;20483;-70
2022/03/28 02:07:40;;;;;;;71.05;58.85;;;8.90;99.90;;;;;;5041235;28;20061;-70
2022/03/28 02:10:10;;;;;;;82.35;62.67;;;8.80;99.90;;;;;;5046812;28;20060;-70
2022/03/28 02:12:36;;;;;;;70.35;59.13;;;8.80;99.90;;;;;;5048957;28;20025;-69
2022/03/28 02:15:04;;;;;;;52.92;42.05;;;8.80;99.90;;;;;;5047259;28;20025;-70
2022/03/28 02:17:31;;;;;;;41.20;36.38;;;8.80;99.90;;;;;;5046756;28;20017;-70
2022/03/28 02:19:57;;;;;;;43.15;34.53;;;8.70;99.90;;;;;;5047103;28;20036;-71
2022/03/28 02:22:23;;;;;;;43.83;38.92;;;8.70;99.90;;;;;;5047189;28;20098;-70
2022/03/28 02:24:49;;;;;;;43.78;39.25;;;8.70;99.90;;;;;;5046798;28;20033;-69
2022/03/28 02:27:16;;;;;;;48.20;39.28;;;8.70;99.90;;;;;;5048082;28;20032;-69
2022/03/28 02:29:41;;;;;;;48.08;42.97;;;8.70;99.90;;;;;;5049747;28;20198;-70
2022/03/28 02:32:08;;;;;;;52.22;42.25;;;8.70;99.90;;;;;;5048426;28;20108;-70
2022/03/28 02:34:34;;;;;;;52.50;42.85;;;8.70;99.90;;;;;;5041382;28;20110;-69
2022/03/28 02:36:59;;;;;;;42.50;35.47;;;8.70;99.90;;;;;;5039220;28;20435;-69
2022/03/28 02:39:25;;;;;;;43.88;36.53;;;8.80;99.90;;;;;;5043575;28;20434;-70
2022/03/28 02:41:52;;;;;;;42.28;35.03;;;9.00;99.90;;;;;;5043093;28;20017;-71
2022/03/28 02:44:18;;;;;;;40.42;36.03;;;9.00;99.90;;;;;;5036600;28;20033;-69
2022/03/28 02:46:46;;;;;;;48.05;40.78;;;8.90;99.90;;;;;;5050057;28;20029;-70
2022/03/28 02:49:12;;;;;;;44.55;37.47;;;8.80;99.90;;;;;;5051985;28;20104;-69
2022/03/28 02:51:39;;;;;;;45.63;40.42;;;8.80;99.90;;;;;;5047633;28;20093;-70
2022/03/28 02:54:05;;;;;;;48.83;37.65;;;8.90;99.90;;;;;;5047204;28;20060;-69
2022/03/28 02:56:31;;;;;;;61.88;36.97;;;8.90;99.90;;;;;;5047404;28;20356;-70
2022/03/28 02:58:56;;;;;;;48.58;39.17;;;8.80;99.90;;;;;;5049153;28;20021;-70
2022/03/28 03:01:22;;;;;;;56.50;40.67;;;8.80;99.90;;;;;;5044305;28;20123;-69
2022/03/28 03:03:48;;;;;;;56.00;39.63;;;8.90;99.90;;;;;;5049254;28;20037;-72
2022/03/28 03:06:14;;;;;;;47.97;40.65;;;8.90;99.90;;;;;;5046448;28;20017;-69
2022/03/28 03:08:39;;;;;;;50.38;44.55;;;8.90;99.90;;;;;;5050452;28;20029;-69
2022/03/28 03:11:06;;;;;;;53.15;45.17;;;9.00;99.90;;;;;;5051293;28;20020;-72
2022/03/28 03:13:31;;;;;;;49.15;43.83;;;9.10;99.90;;;;;;5050642;28;20021;-73
2022/03/28 03:15:58;;;;;;;46.25;41.28;;;9.10;99.90;;;;;;5051137;28;20536;-71
2022/03/28 03:18:24;;;;;;;57.83;43.50;;;9.10;99.90;;;;;;5043999;28;20116;-69
2022/03/28 03:20:50;;;;;;;51.63;44.95;;;9.10;99.90;;;;;;5051812;28;20144;-70
2022/03/28 03:23:16;;;;;;;49.05;43.65;;;9.00;99.90;;;;;;5048490;28;20466;-70
2022/03/28 03:25:42;;;;;;;52.00;44.95;;;9.10;99.90;;;;;;5051010;28;20040;-70
2022/03/28 03:28:08;;;;;;;57.83;44.05;;;9.00;99.90;;;;;;5046490;28;20025;-74
2022/03/28 03:30:33;;;;;;;60.72;52.03;;;9.10;99.90;;;;;;5053199;28;20025;-70
2022/03/28 03:32:59;;;;;;;58.78;50.05;;;9.10;99.90;;;;;;5053737;28;20029;-69
2022/03/28 03:35:25;;;;;;;67.38;54.75;;;9.10;99.90;;;;;;5054001;28;20025;-69
2022/03/28 03:37:51;;;;;;;61.08;50.25;;;9.20;99.90;;;;;;5054602;28;20113;-70
2022/03/28 03:40:16;;;;;;;63.40;56.63;;;9.10;99.90;;;;;;5049772;28;20083;-70
2022/03/28 03:42:42;;;;;;;67.47;58.72;;;9.00;99.90;;;;;;5044944;28;20080;-74
2022/03/28 03:45:09;;;;;;;143.05;55.65;;;9.00;99.90;;;;;;5051701;28;20082;-70
2022/03/28 03:47:35;;;;;;;72.05;56.88;;;9.00;99.90;;;;;;5044118;28;20056;-71
2022/03/28 03:50:02;;;;;;;81.75;56.30;;;9.00;99.90;;;;;;5043978;28;20083;-70
2022/03/28 03:52:28;;;;;;;82.78;59.90;;;9.00;99.90;;;;;;5053618;28;20025;-72
2022/03/28 03:54:54;;;;;;;90.13;60.13;;;9.00;99.90;;;;;;5049782;28;20029;-69
2022/03/28 03:57:20;;;;;;;85.97;64.05;;;8.90;99.90;;;;;;5043659;28;20013;-71
2022/03/28 03:59:45;;;;;;;84.47;65.95;;;8.80;99.90;;;;;;5035614;28;20112;-70
2022/03/28 04:02:11;;;;;;;86.05;65.28;;;8.70;99.90;;;;;;5038958;28;20066;-71
2022/03/28 04:04:37;;;;;;;84.43;67.60;;;8.80;99.90;;;;;;5053269;28;20415;-70
2022/03/28 04:07:03;;;;;;;82.60;73.10;;;8.90;99.90;;;;;;5054958;28;20098;-72
2022/03/28 04:09:29;;;;;;;81.07;72.03;;;8.80;99.90;;;;;;5052025;28;20061;-70
2022/03/28 04:11:55;;;;;;;100.38;66.25;;;8.70;99.90;;;;;;5049361;28;20106;-70
2022/03/28 04:14:20;;;;;;;91.43;69.15;;;8.60;99.90;;;;;;5047099;28;20094;-70
2022/03/28 04:16:46;;;;;;;85.43;66.72;;;8.40;99.90;;;;;;5053181;28;20445;-71
2022/03/28 04:19:13;;;;;;;81.07;65.10;;;8.50;99.90;;;;;;5051045;28;20092;-69
2022/03/28 04:21:38;;;;;;;70.72;61.35;;;8.40;99.90;;;;;;5052485;28;20017;-69
2022/03/28 04:24:04;;;;;;;72.20;57.33;;;8.40;99.90;;;;;;5049736;28;20390;-70
2022/03/28 04:26:30;;;;;;;85.18;64.57;;;8.30;99.90;;;;;;5051195;28;20043;-71
2022/03/28 04:28:56;;;;;;;101.82;70.93;;;8.30;99.90;;;;;;5046791;28;20025;-73
2022/03/28 04:31:21;;;;;;;99.22;67.13;;;8.20;99.90;;;;;;5050140;28;20039;-70
2022/03/28 04:33:47;;;;;;;92.40;62.20;;;8.10;99.90;;;;;;5051791;28;20078;-71
2022/03/28 04:36:13;;;;;;;84.20;58.65;;;8.00;99.90;;;;;;5051618;28;20025;-71
2022/03/28 04:38:39;;;;;;;59.03;47.03;;;8.00;99.90;;;;;;5047531;28;20482;-70
2022/03/28 04:41:04;;;;;;;59.50;48.30;;;7.90;99.90;;;;;;5047432;28;20017;-69
2022/03/28 04:43:30;;;;;;;59.78;46.78;;;7.80;99.90;;;;;;5050901;28;20482;-71
2022/03/28 04:45:56;;;;;;;61.15;48.38;;;7.80;99.90;;;;;;5050501;28;20032;-71
2022/03/28 04:48:23;;;;;;;63.67;45.65;;;7.90;99.90;;;;;;5051010;28;20021;-69
2022/03/28 04:50:49;;;;;;;61.42;48.85;;;7.90;99.90;;;;;;5039327;28;20144;-69
2022/03/28 04:53:16;;;;;;;63.83;49.85;;;7.80;99.90;;;;;;5044548;28;20182;-70
2022/03/28 04:55:42;;;;;;;55.95;46.15;;;7.80;99.90;;;;;;5050992;28;20021;-71
2022/03/28 04:58:08;;;;;;;69.35;48.70;;;7.80;99.90;;;;;;5046894;28;20032;-70
2022/03/28 05:00:34;;;;;;;67.13;52.70;;;7.80;99.90;;;;;;5051613;28;20481;-70
2022/03/28 05:03:00;;;;;;;64.50;50.67;;;7.80;99.90;;;;;;5046629;28;20021;-71
2022/03/28 05:05:25;;;;;;;63.58;51.78;;;7.80;99.90;;;;;;5041826;28;20078;-71
2022/03/28 05:07:51;;;;;;;76.57;54.92;;;7.70;99.90;;;;;;5048671;28;20028;-69
2022/03/28 05:10:17;;;;;;;63.65;55.72;;;7.70;99.90;;;;;;5046909;28;20391;-71
2022/03/28 05:12:43;;;;;;;73.00;56.60;;;7.70;99.90;;;;;;5049630;28;20024;-73
2022/03/28 05:15:09;;;;;;;62.72;54.60;;;7.70;99.90;;;;;;5050220;28;20127;-69
2022/03/28 05:17:44;;;;;;;69.40;56.45;;;7.70;99.90;;;;;;5049264;28;20023;-71
2022/03/28 05:20:10;;;;;;;73.75;55.58;;;7.70;99.90;;;;;;5046330;28;20078;-70
2022/03/28 05:22:37;;;;;;;77.90;57.42;;;7.70;99.90;;;;;;5038632;28;20025;-69
2022/03/28 05:25:05;;;;;;;73.75;55.00;;;7.70;99.90;;;;;;5042041;28;20326;-71
2022/03/28 05:27:31;;;;;;;68.50;56.40;;;7.70;99.90;;;;;;5047703;28;20039;-69
2022/03/28 05:29:58;;;;;;;69.93;57.55;;;7.70;99.90;;;;;;5050599;28;20017;-70
2022/03/28 05:32:23;;;;;;;67.13;52.75;;;7.70;99.90;;;;;;5050120;28;20117;-73
2022/03/28 05:34:49;;;;;;;76.03;58.30;;;7.80;99.90;;;;;;5050224;28;20117;-72
2022/03/28 05:37:18;;;;;;;70.28;57.08;;;7.80;99.90;;;;;;5046199;28;20021;-68
2022/03/28 05:39:45;;;;;;;74.35;55.25;;;7.80;99.90;;;;;;5044716;28;20418;-71
2022/03/28 05:42:11;;;;;;;72.57;56.50;;;7.90;99.90;;;;;;5050574;28;20017;-70
2022/03/28 05:44:43;;;;;;;71.88;55.15;;;8.00;99.90;;;;;;5050294;28;20025;-70
2022/03/28 05:47:09;;;;;;;73.40;55.67;;;8.00;99.90;;;;;;5048649;28;20036;-70
2022/03/28 05:49:35;;;;;;;74.70;57.17;;;8.10;99.90;;;;;;5041508;28;20014;-70
2022/03/28 05:52:01;;;;;;;70.60;53.20;;;8.10;99.90;;;;;;5042269;28;20072;-69
2022/03/28 05:54:27;;;;;;;64.78;54.25;;;8.20;99.90;;;;;;5046378;28;20055;-70
2022/03/28 05:56:52;;;;;;;64.90;52.70;;;8.30;99.90;;;;;;5038314;28;20060;-70
2022/03/28 05:59:18;;;;;;;71.78;50.53;;;8.30;99.90;;;;;;5049975;28;20104;-70
2022/03/28 06:01:44;;;;;;;68.47;49.00;;;8.40;99.90;;;;;;5049134;28;20451;-71
2022/03/28 06:04:10;;;;;;;70.45;49.65;;;8.30;99.90;;;;;;5046238;28;20528;-70
2022/03/28 06:06:36;;;;;;;76.45;50.63;;;8.50;99.90;;;;;;5042344;28;20524;-70
2022/03/28 06:09:02;;;;;;;69.50;49.72;;;8.50;99.90;;;;;;5045297;28;20025;-71
2022/03/28 06:11:28;;;;;;;60.47;50.25;;;8.60;99.90;;;;;;5049679;28;20062;-70
2022/03/28 06:13:57;;;;;;;71.05;52.95;;;8.60;99.90;;;;;;5052563;28;20108;-70
2022/03/28 06:16:23;;;;;;;59.20;47.92;;;8.70;99.90;;;;;;5044322;28;20071;-71
2022/03/28 06:18:49;;;;;;;75.75;52.22;;;8.70;99.90;;;;;;5051035;28;20451;-70
2022/03/28 06:21:15;;;;;;;65.30;51.30;;;8.80;99.90;;;;;;5053348;28;20074;-70
2022/03/28 06:23:40;;;;;;;70.20;51.58;;;8.80;99.90;;;;;;5052767;28;20025;-69
2022/03/28 06:26:06;;;;;;;69.55;53.78;;;8.90;99.90;;;;;;5051363;28;20017;-70
2022/03/28 06:28:33;;;;;;;65.85;51.20;;;9.00;99.90;;;;;;5034382;28;20032;-71
2022/03/28 06:30:59;;;;;;;61.17;48.90;;;9.10;99.90;;;;;;5049698;28;20039;-70
2022/03/28 06:33:24;;;;;;;67.05;51.17;;;9.20;99.90;;;;;;5050464;28;20184;-70
2022/03/28 06:35:52;;;;;;;63.08;46.60;;;9.20;99.90;;;;;;5051708;28;20029;-70
2022/03/28 06:38:18;;;;;;;59.72;45.22;;;9.30;99.90;;;;;;5049688;28;20025;-69
2022/03/28 06:40:44;;;;;;;67.68;48.67;;;9.50;99.90;;;;;;5051545;28;20029;-70
2022/03/28 06:43:10;;;;;;;55.95;44.90;;;9.50;99.90;;;;;;5053151;28;20443;-70
2022/03/28 06:45:36;;;;;;;70.07;44.45;;;9.60;99.90;;;;;;5049386;28;20029;-70
2022/03/28 06:48:03;;;;;;;73.15;50.15;;;9.80;99.90;;;;;;5052153;28;20025;-71
2022/03/28 06:50:28;;;;;;;67.15;50.53;;;9.80;99.90;;;;;;5049211;28;20067;-70
2022/03/28 06:52:55;;;;;;;68.25;46.45;;;9.90;99.90;;;;;;5044096;28;20436;-71
2022/03/28 06:55:21;;;;;;;62.05;47.80;;;9.90;99.90;;;;;;5052620;28;20033;-70
2022/03/28 06:57:48;;;;;;;64.75;47.25;;;9.90;99.90;;;;;;5048239;28;20067;-69
2022/03/28 07:00:14;;;;;;;76.55;49.38;;;9.90;99.90;;;;;;5050388;28;20025;-71
2022/03/28 07:02:40;;;;;;;65.00;48.20;;;10.00;99.90;;;;;;5048550;28;20028;-71
2022/03/28 07:05:07;;;;;;;72.03;54.67;;;10.10;99.90;;;;;;5051431;28;20037;-70
2022/03/28 07:07:44;;;;;;;91.13;56.90;;;10.30;99.90;;;;;;5053179;28;20025;-69
2022/03/28 07:10:12;;;;;;;100.90;58.67;;;10.40;99.90;;;;;;5054004;28;20055;-70
2022/03/28 07:12:38;;;;;;;107.57;59.92;;;10.40;99.90;;;;;;5051623;28;20049;-69
2022/03/28 07:15:05;;;;;;;86.88;59.00;;;10.50;99.90;;;;;;5046271;28;20029;-70
2022/03/28 07:17:33;;;;;;;83.03;56.85;;;10.50;99.90;;;;;;5049025;28;20616;-71
2022/03/28 07:19:59;;;;;;;81.95;63.13;;;10.60;99.90;;;;;;5044048;28;20111;-73
2022/03/28 07:22:24;;;;;;;93.32;62.08;;;10.70;99.90;;;;;;5047489;28;20111;-71
2022/03/28 07:24:50;;;;;;;83.68;65.28;;;10.80;99.90;;;;;;5042368;28;20642;-70
2022/03/28 07:27:17;;;;;;;87.00;65.80;;;10.90;99.90;;;;;;5048825;28;20036;-71
2022/03/28 07:29:43;;;;;;;78.38;63.33;;;10.90;99.90;;;;;;5052824;28;20040;-70
2022/03/28 07:32:09;;;;;;;85.05;68.32;;;10.90;99.90;;;;;;5052935;28;20045;-70
2022/03/28 07:34:35;;;;;;;86.85;66.95;;;11.00;99.90;;;;;;5046964;28;20025;-70
2022/03/28 07:37:05;;;;;;;92.40;68.10;;;10.90;99.90;;;;;;5035534;28;20199;-70
2022/03/28 07:39:34;;;;;;;78.20;65.65;;;11.00;99.90;;;;;;5031736;28;20105;-70
2022/03/28 07:42:01;;;;;;;77.18;65.63;;;10.80;99.90;;;;;;5050244;28;20368;-70
2022/03/28 07:44:27;;;;;;;77.07;65.05;;;10.80;99.90;;;;;;5035636;28;20091;-70
2022/03/28 07:46:52;;;;;;;73.20;62.78;;;10.70;99.90;;;;;;5040108;28;20386;-71
2022/03/28 07:49:18;;;;;;;81.78;66.55;;;10.70;99.90;;;;;;5048211;28;20029;-69
2022/03/28 07:51:44;;;;;;;82.40;66.85;;;10.70;99.90;;;;;;5048669;28;20043;-69
2022/03/28 07:54:11;;;;;;;73.05;65.13;;;10.60;99.90;;;;;;5048272;28;20035;-69
2022/03/28 07:56:37;;;;;;;74.50;66.43;;;10.70;99.90;;;;;;5051463;28;20028;-72
2022/03/28 07:59:03;;;;;;;73.55;64.50;;;10.60;99.90;;;;;;5051036;28;20020;-72
2022/03/28 08:01:29;;;;;;;70.53;61.97;;;10.60;99.90;;;;;;5040353;28;20106;-72
2022/03/28 08:03:56;;;;;;;72.88;64.60;;;10.60;99.90;;;;;;5047496;28;20104;-73
2022/03/28 08:06:22;;;;;;;73.97;60.75;;;10.50;99.90;;;;;;5049784;28;20374;-71
2022/03/28 08:09:23;;;;;;;69.45;61.83;;;10.40;99.90;;;;;;5050422;28;20014;-74
2022/03/28 08:11:49;;;;;;;65.35;58.50;;;10.20;99.90;;;;;;5036786;28;20032;-72
2022/03/28 08:14:25;;;;;;;68.72;60.58;;;10.10;99.90;;;;;;5051982;28;20025;-70
2022/03/28 08:16:53;;;;;;;72.90;64.97;;;10.00;99.90;;;;;;5045972;28;20060;-72
2022/03/28 08:19:19;;;;;;;73.95;62.13;;;10.00;99.90;;;;;;5045977;28;20025;-70
2022/03/28 08:21:45;;;;;;;70.22;59.67;;;10.00;99.90;;;;;;5051019;28;20391;-71
2022/03/28 08:24:11;;;;;;;67.65;59.65;;;10.00;99.90;;;;;;5055669;28;20062;-70
2022/03/28 08:26:37;;;;;;;65.15;57.88;;;10.10;99.90;;;;;;5055331;28;20021;-72
2022/03/28 08:29:04;;;;;;;67.95;60.60;;;10.10;99.90;;;;;;5053138;28;20025;-74
2022/03/28 08:31:33;;;;;;;66.10;59.10;;;10.10;99.90;;;;;;5054598;28;20029;-70
2022/03/28 08:33:59;;;;;;;62.65;55.78;;;10.20;99.90;;;;;;5053329;28;20460;-73
2022/03/28 08:36:25;;;;;;;59.53;53.28;;;10.30;99.90;;;;;;5042014;28;20322;-70
2022/03/28 08:38:50;;;;;;;57.03;51.13;;;10.50;99.90;;;;;;5046534;28;20412;-64
2022/03/28 08:41:18;;;;;;;53.10;47.47;;;10.50;99.90;;;;;;5048196;28;20052;-64
2022/03/28 08:43:46;;;;;;;60.75;51.00;;;10.50;99.90;;;;;;5051975;28;20048;-62
2022/03/28 08:46:15;;;;;;;57.35;51.55;;;10.50;99.90;;;;;;5045267;28;20177;-63
2022/03/28 08:48:41;;;;;;;58.97;51.30;;;10.60;99.90;;;;;;5042270;28;20432;-62
2022/03/28 08:51:13;;;;;;;60.30;52.53;;;10.70;99.90;;;;;;5039807;28;20029;-62
2022/03/28 08:53:39;;;;;;;62.27;56.07;;;10.60;99.90;;;;;;5045900;28;20491;-64
2022/03/28 08:56:12;;;;;;;57.00;51.00;;;10.60;99.90;;;;;;5046885;28;20021;-63
2022/03/28 08:58:42;;;;;;;57.60;51.55;;;10.70;99.90;;;;;;5045753;28;20013;-63
2022/03/28 09:01:08;;;;;;;57.10;50.72;;;10.80;99.90;;;;;;5051327;28;20021;-64
2022/03/28 09:03:47;;;;;;;59.47;53.30;;;10.70;99.90;;;;;;5042683;28;20024;-64
2022/03/28 09:06:36;;;;;;;56.33;50.42;;;10.80;99.90;;;;;;5046269;28;20017;-64
2022/03/28 09:09:20;;;;;;;57.00;49.42;;;10.80;99.90;;;;;;5046971;28;20035;-64
2022/03/28 09:12:04;;;;;;;60.97;54.65;;;10.70;99.90;;;;;;5047444;28;20029;-63
2022/03/28 09:14:35;;;;;;;55.28;49.83;;;10.70;99.90;;;;;;5047470;28;20382;-64
2022/03/28 09:17:02;;;;;;;57.63;51.70;;;10.90;99.90;;;;;;5039970;28;20028;-63
2022/03/28 09:19:54;;;;;;;58.38;52.22;;;10.90;99.90;;;;;;5041518;28;20021;-64
2022/03/28 09:22:39;;;;;;;54.25;48.90;;;11.00;99.90;;;;;;5049215;28;20535;-66
2022/03/28 09:25:09;;;;;;;55.00;48.75;;;10.90;99.90;;;;;;5034076;28;20040;-62
2022/03/28 09:27:41;;;;;;;51.42;45.88;;;10.90;99.90;;;;;;5049972;28;20025;-64
2022/03/28 09:30:10;;;;;;;55.70;49.83;;;10.90;99.90;;;;;;5050758;28;20021;-64
2022/03/28 09:32:47;;;;;;;55.03;49.53;;;11.00;99.90;;;;;;5051573;28;20098;-62
2022/03/28 09:35:21;;;;;;;54.38;48.92;;;11.00;99.90;;;;;;5046179;28;20111;-65
2022/03/28 09:37:49;;;;;;;54.03;48.40;;;11.00;99.90;;;;;;5049503;28;20435;-66
2022/03/28 09:40:39;;;;;;;53.47;47.97;;;11.10;99.90;;;;;;5043992;28;20028;-64
2022/03/28 09:43:30;;;;;;;56.47;50.72;;;11.10;99.90;;;;;;5045018;28;20028;-65
2022/03/28 09:45:57;;;;;;;56.38;50.28;;;11.10;99.90;;;;;;5044350;28;20036;-66
2022/03/28 09:48:26;;;;;;;60.70;53.60;;;11.20;99.90;;;;;;5017214;28;20033;-66
2022/03/28 09:51:05;;;;;;;57.45;51.30;;;11.20;99.90;;;;;;5037274;28;20025;-64
2022/03/28 09:53:35;;;;;;;56.22;50.28;;;11.10;99.90;;;;;;5041517;28;20419;-66
2022/03/28 09:56:02;;;;;;;58.38;51.97;;;11.20;99.90;;;;;;5041831;28;20028;-65
2022/03/28 09:58:32;;;;;;;63.47;56.50;;;11.30;99.90;;;;;;5033779;28;20017;-64
2022/03/28 10:01:03;;;;;;;65.50;55.60;;;11.20;99.90;;;;;;5030853;28;20136;-66
2022/03/28 10:03:33;;;;;;;61.13;54.83;;;11.10;99.90;;;;;;5037860;28;20044;-65
2022/03/28 10:06:01;;;;;;;59.20;53.13;;;11.10;99.90;;;;;;5047015;28;20029;-66
2022/03/28 10:08:28;;;;;;;59.90;53.80;;;11.10;99.90;;;;;;5047478;28;20025;-66
2022/03/28 10:10:54;;;;;;;67.65;57.40;;;11.10;99.90;;;;;;5045496;28;20163;-66
2022/03/28 10:13:22;;;;;;;60.67;54.47;;;11.20;99.90;;;;;;5046979;28;20454;-65
2022/03/28 10:15:48;;;;;;;61.72;55.30;;;11.30;99.90;;;;;;5047673;28;20472;-67
2022/03/28 10:18:14;;;;;;;61.92;55.17;;;11.40;99.90;;;;;;5050411;28;20522;-67
2022/03/28 10:20:43;;;;;;;60.17;53.70;;;11.50;99.90;;;;;;5048655;28;20029;-64
2022/03/28 10:23:12;;;;;;;59.95;53.72;;;11.50;99.90;;;;;;5038927;28;20026;-64
2022/03/28 10:25:40;;;;;;;58.42;52.15;;;11.60;99.90;;;;;;5033892;28;20071;-64
2022/03/28 10:28:07;;;;;;;64.93;54.72;;;11.60;99.90;;;;;;5047407;28;20104;-65
2022/03/28 10:30:33;;;;;;;60.50;50.40;;;11.70;99.90;;;;;;5046387;28;20464;-65
2022/03/28 10:33:19;;;;;;;59.70;53.15;;;11.60;99.90;;;;;;5049984;28;20041;-66
2022/03/28 10:36:07;;;;;;;58.05;51.72;;;11.50;99.90;;;;;;5045198;28;20021;-66
2022/03/28 10:38:32;;;;;;;59.60;52.80;;;11.60;99.90;;;;;;5041137;28;20120;-66
2022/03/28 10:41:14;;;;;;;55.97;50.03;;;11.70;99.90;;;;;;5043790;28;20029;-65
2022/03/28 10:43:40;;;;;;;54.90;48.95;;;11.80;99.90;;;;;;5038616;28;20060;-66
2022/03/28 10:46:10;;;;;;;56.75;50.75;;;11.70;99.90;;;;;;5043251;28;20036;-67
2022/03/28 10:48:46;;;;;;;60.03;53.25;;;11.60;99.90;;;;;;5045248;28;20061;-65
2022/03/28 10:51:21;;;;;;;51.95;46.45;;;11.60;99.90;;;;;;5038635;28;20025;-66
2022/03/28 10:54:05;;;;;;;48.65;43.20;;;11.70;99.90;;;;;;5037499;28;20079;-66
2022/03/28 10:56:37;;;;;;;52.55;45.53;;;11.80;99.90;;;;;;5046437;28;20096;-66
2022/03/28 10:59:15;;;;;;;47.38;42.40;;;11.80;99.90;;;;;;5047943;28;20032;-65
2022/03/28 11:01:46;;;;;;;46.05;41.28;;;11.80;99.90;;;;;;5044704;28;20024;-65
2022/03/28 11:04:24;;;;;;;43.08;38.83;;;11.80;99.90;;;;;;5043752;28;20119;-67
2022/03/28 11:06:53;;;;;;;45.60;40.63;;;11.60;99.90;;;;;;5051953;28;20052;-66
2022/03/28 11:10:15;;;;;;;45.90;41.03;;;11.60;99.90;;;;;;5045285;28;20558;-65
2022/03/28 11:12:42;;;;;;;43.33;38.85;;;11.50;99.90;;;;;;5001263;28;20044;-65
2022/03/28 11:15:23;;;;;;;45.88;41.35;;;11.60;99.90;;;;;;5037516;28;20029;-65
2022/03/28 11:17:58;;;;;;;45.38;40.65;;;11.60;99.90;;;;;;5046164;28;20343;-66
2022/03/28 11:20:28;;;;;;;50.88;43.33;;;11.70;99.90;;;;;;5036197;28;20180;-65
2022/03/28 11:23:11;;;;;;;46.28;41.60;;;11.70;99.90;;;;;;5047267;28;20021;-66
2022/03/28 11:25:41;;;;;;;49.08;44.08;;;11.60;99.90;;;;;;5045931;28;20025;-64
2022/03/28 11:28:23;;;;;;;48.90;43.63;;;11.50;99.90;;;;;;5034385;28;20091;-66
2022/03/28 11:31:02;;;;;;;48.15;43.38;;;11.40;99.90;;;;;;5044170;28;20033;-65
2022/03/28 11:33:32;;;;;;;54.70;48.95;;;11.20;99.90;;;;;;5037987;28;20025;-65
2022/03/28 11:36:08;;;;;;;50.85;45.53;;;11.30;99.90;;;;;;5045094;28;20029;-66
2022/03/28 11:38:38;;;;;;;62.00;51.28;;;11.30;99.90;;;;;;5041243;28;20088;-64
2022/03/28 11:41:06;;;;;;;54.78;48.97;;;11.00;99.90;;;;;;5040528;28;20025;-66
2022/03/28 11:43:38;;;;;;;53.83;48.17;;;11.00;99.90;;;;;;5043327;28;20029;-66
2022/03/28 11:46:14;;;;;;;50.83;45.45;;;11.00;99.90;;;;;;5041603;28;20085;-65
2022/03/28 11:49:06;;;;;;;55.88;49.60;;;11.10;99.90;;;;;;5045725;28;20061;-67
2022/03/28 11:51:34;;;;;;;66.90;57.47;;;11.00;99.90;;;;;;5036104;28;20491;-66
2022/03/28 11:54:02;;;;;;;59.22;50.33;;;11.00;99.90;;;;;;5032912;28;20033;-67
2022/03/28 11:58:14;;;;;;;53.05;47.75;;;11.20;99.90;;;;;;5032737;28;20480;-66
2022/03/28 11:59:22;;;;;;;56.13;50.15;;;11.20;99.90;;;;;;5044015;28;20033;-66
2022/03/28 12:02:01;;;;;;;61.13;54.42;;;11.10;99.90;;;;;;5042764;28;20028;-65
2022/03/28 12:04:28;;;;;;;53.92;48.28;;;11.20;99.90;;;;;;5049772;28;20441;-67
2022/03/28 12:06:54;;;;;;;52.72;47.33;;;11.20;99.90;;;;;;5051838;28;20035;-67
2022/03/28 12:09:23;;;;;;;55.05;49.45;;;11.30;99.90;;;;;;5046313;28;20483;-65
2022/03/28 12:11:51;;;;;;;49.95;44.70;;;11.30;99.90;;;;;;5043659;28;20033;-66
2022/03/28 12:14:17;;;;;;;53.90;46.75;;;11.30;99.90;;;;;;5046747;28;20083;-65
2022/03/28 12:16:50;;;;;;;49.85;43.95;;;11.50;99.90;;;;;;5035771;28;20021;-66
2022/03/28 12:19:17;;;;;;;49.30;44.08;;;11.40;99.90;;;;;;5034534;28;20076;-66
2022/03/28 12:21:43;;;;;;;50.05;44.88;;;11.30;99.90;;;;;;5039101;28;20064;-65
2022/03/28 12:24:09;;;;;;;43.40;38.85;;;11.30;99.90;;;;;;5032167;28;20022;-65
2022/03/28 12:27:04;;;;;;;47.38;42.67;;;11.50;99.90;;;;;;5042827;28;20033;-66
2022/03/28 12:29:32;;;;;;;48.80;43.60;;;11.40;99.90;;;;;;5039505;28;20025;-65
2022/03/28 12:32:03;;;;;;;49.40;44.40;;;11.20;99.90;;;;;;5048280;28;20023;-66
2022/03/28 12:34:30;;;;;;;56.55;50.15;;;11.00;99.90;;;;;;5052492;28;20021;-66
2022/03/28 12:36:58;;;;;;;53.50;48.08;;;11.10;99.90;;;;;;5046405;28;20021;-66
2022/03/28 12:39:23;;;;;;;49.42;44.25;;;11.20;99.90;;;;;;5045617;28;20051;-66